Aérodrome :
LOGIN :

S'inscrire | Disclaimer

   EN    FR    IT 

 










Légende :    VFR   VFR Marginal   IFR   IFR Intensif   IFR Très Intensif
Visi : 
Plafond : 
>= 8 km
>= 3000ft
5 à 8 km
1000 à 3000 ft
1500m à 5 km
500 à 1000 ft
800 à 1500m
200 à 500 ft
< 800m
< 200 ft
Symboles :   Orages  Brouillard  Fortes neiges  Fortes précipitations  Vent > 20 kt
SIGMETs :   Divers  Orages  Givrage  Turbulence  Onde Orograph.  Cendres Volcan.






- Altitude de l'aérodrome : 659 ft
- Code IATA : LGG


EBLG - Liège

DERNIER METAR :
  • 211320Z 14009KT CAVOK 05/02 Q1006 NOSIG

METARs EXPIRÉS :
  • 211250Z 15010KT CAVOK 04/02 Q1006 NOSIG
  • 211220Z 15005KT CAVOK 04/02 Q1006 NOSIG
  • 211150Z 16006KT CAVOK 04/02 Q1006 NOSIG
  • 211120Z 16007KT CAVOK 04/01 Q1007 NOSIG
  • 211050Z 15006KT 120V190 CAVOK 03/01 Q1007 NOSIG

TAF TAF EBLG
Valide du 21 à 12h jusqu'au 22 à 18h UTC


211110Z 2112/2218 17005KT 8000 NSC
BECMG 2200/2202 SCT004 BKN007
PROB30
TEMPO 2301/2305 4000 RA SHRA BKN004
BECMG 2208/2210 BKN016



MET'MAP, la Météo Aéronautique d'un coup d'oeil ! - Copyright ORBIFLY Décembre 2007 - Disclaimer

ORBIFLY MET'MAP TEAM :

Programmation & Développement : Alexandra Zaïnal
Conception & Développement : Baudouin d'Aumeries
Co-Programmation & Développement : Marc-Olivier Méhu
Soutien technique & logistique : Manuel Goepfert

Contact : metmap@orbifly.com




SOURCES & CREDITS :

   NOAA